Time;durP1;ratioP1;P1;durP2;ratioP2;P2;SDS_P1;SDS_P2;PMS_P1;PMS_P2;Temp;Humidity;BMP_temperature;BMP_pressure;BME280_temperature;BME280_humidity;BME280_pressure;Samples;Min_cycle;Max_cycle;Signal;HPM_P1;HPM_P2
2023/10/20 00:01:10;;;;;;;11.35;7.30;;;15.30;99.90;;;15.37;86.32;97638.38;5084925;28;20041;-81
2023/10/20 00:03:40;;;;;;;12.00;7.95;;;15.20;99.90;;;15.38;86.24;97629.19;5084883;28;20112;-81
2023/10/20 00:06:08;;;;;;;11.52;8.30;;;15.20;99.90;;;15.39;85.96;97627.31;5067855;28;20064;-81
2023/10/20 00:08:36;;;;;;;12.45;8.65;;;15.30;99.90;;;15.37;85.92;97633.00;5071723;28;20044;-81
2023/10/20 00:11:08;;;;;;;11.93;8.93;;;15.20;99.90;;;15.37;86.08;97633.00;5086331;28;20126;-81
2023/10/20 00:13:36;;;;;;;12.68;8.75;;;15.20;99.90;;;15.38;86.13;97631.09;5101166;28;20139;-81
2023/10/20 00:16:11;;;;;;;16.10;9.05;;;15.20;99.90;;;15.36;85.99;97634.06;5068171;28;20037;-81
2023/10/20 00:18:50;;;;;;;19.55;9.60;;;15.20;99.90;;;15.34;86.46;97632.81;5066508;28;20128;-81
2023/10/20 00:21:21;;;;;;;11.55;8.40;;;15.20;99.90;;;15.35;86.66;97643.25;5068667;28;20048;-81
2023/10/20 00:23:48;;;;;;;;;;;15.20;99.90;;;15.36;86.62;97631.38;5048925;28;20041;-81
2023/10/20 00:26:17;;;;;;;12.20;8.52;;;15.20;99.90;;;15.34;86.72;97628.22;5079800;28;19929;-82
2023/10/20 00:29:05;;;;;;;12.55;7.93;;;15.10;99.90;;;15.33;86.57;97626.66;5054993;28;20414;-81
2023/10/20 00:31:38;;;;;;;12.73;8.43;;;15.10;99.90;;;15.34;86.44;97620.19;5067643;28;20068;-81
2023/10/20 00:34:07;;;;;;;10.77;7.72;;;15.10;99.90;;;15.35;86.11;97618.28;5081330;28;20049;-81
2023/10/20 00:36:35;;;;;;;12.15;8.05;;;15.10;99.90;;;15.36;86.20;97622.53;5075063;28;20067;-81
2023/10/20 00:39:04;;;;;;;11.82;7.88;;;15.10;99.90;;;15.35;85.68;97616.38;5084287;28;20070;-81
2023/10/20 00:41:34;;;;;;;14.05;8.10;;;15.10;99.90;;;15.36;86.25;97614.47;5063005;28;20041;-81
2023/10/20 00:44:02;;;;;;;11.20;7.80;;;15.10;99.90;;;15.35;86.23;97620.97;5064769;28;20048;-81
2023/10/20 00:46:30;;;;;;;12.25;8.35;;;15.10;99.90;;;15.35;85.86;97612.91;5063868;28;20123;-81
2023/10/20 00:49:00;;;;;;;12.10;8.00;;;15.10;99.90;;;15.33;86.42;97615.91;5064550;28;20080;-81
2023/10/20 00:51:42;;;;;;;14.02;7.35;;;15.10;99.90;;;15.32;85.73;97598.19;5068502;28;20049;-81
2023/10/20 00:54:15;;;;;;;11.85;8.10;;;15.10;99.90;;;15.32;86.12;97594.72;5065811;28;20112;-81
2023/10/20 00:56:44;;;;;;;15.90;8.10;;;15.10;99.90;;;15.31;86.28;97593.16;5080556;28;20072;-81
2023/10/20 01:01:54;;;;;;;10.90;7.95;;;15.10;99.90;;;15.30;86.36;97568.19;5089333;28;20583;-81
2023/10/20 01:04:24;;;;;;;13.25;8.10;;;15.10;99.90;;;15.30;86.17;97559.34;5067853;28;20041;-81
2023/10/20 01:06:53;;;;;;;9.57;6.97;;;15.00;99.90;;;15.28;86.40;97557.00;5081129;28;20067;-81
2023/10/20 01:09:27;;;;;;;10.77;8.10;;;15.00;99.90;;;15.28;86.11;97548.94;5051435;28;20079;-81
2023/10/20 01:11:56;;;;;;;11.88;7.95;;;15.00;99.90;;;15.27;86.65;97544.66;5065160;28;20041;-81
2023/10/20 01:14:24;;;;;;;10.40;7.63;;;15.00;99.90;;;15.26;87.03;97540.38;5064635;28;20044;-82
2023/10/20 01:16:52;;;;;;;11.35;7.80;;;15.00;99.90;;;15.26;86.96;97534.22;5067946;28;20033;-81
2023/10/20 01:19:19;;;;;;;12.60;8.07;;;15.00;99.90;;;15.24;86.96;97537.22;5066311;28;20412;-81
2023/10/20 01:21:47;;;;;;;14.55;8.82;;;15.00;99.90;;;15.24;86.84;97534.56;5036451;28;20044;-81
2023/10/20 01:24:16;;;;;;;13.07;9.07;;;15.00;99.90;;;15.24;86.87;97529.19;5069442;28;20052;-81
2023/10/20 01:26:44;;;;;;;12.38;8.73;;;15.00;99.90;;;15.24;86.80;97537.22;5079664;28;20499;-81
2023/10/20 01:29:12;;;;;;;14.40;10.20;;;15.00;99.90;;;15.23;87.02;97535.66;5065785;28;20049;-81
2023/10/20 01:31:39;;;;;;;15.25;10.25;;;15.00;99.90;;;15.23;86.77;97524.13;5072242;28;20500;-81
2023/10/20 01:34:07;;;;;;;14.63;10.38;;;15.00;99.90;;;15.22;86.69;97512.56;5074535;28;20173;-82
2023/10/20 01:36:37;;;;;;;16.20;10.13;;;15.00;99.90;;;15.20;86.62;97507.53;5069334;28;20055;-81
2023/10/20 01:39:05;;;;;;;13.88;10.57;;;15.00;99.90;;;15.20;86.56;97501.38;5050690;28;20427;-81
2023/10/20 01:41:34;;;;;;;15.02;10.90;;;14.90;99.90;;;15.19;86.54;97502.47;5067050;28;20071;-81
2023/10/20 01:44:02;;;;;;;15.77;11.27;;;14.90;99.90;;;15.18;86.70;97504.38;5072701;28;20045;-81
2023/10/20 01:46:29;;;;;;;17.33;11.60;;;14.90;99.90;;;15.17;86.70;97510.03;5050492;28;20050;-81
2023/10/20 01:48:57;;;;;;;15.93;11.10;;;14.90;99.90;;;15.16;86.88;97501.19;5053111;28;20079;-81
2023/10/20 01:51:24;;;;;;;15.10;10.73;;;14.90;99.90;;;15.17;86.85;97499.31;5068410;28;20056;-81
2023/10/20 01:53:52;;;;;;;17.10;11.07;;;14.90;99.90;;;15.16;86.86;97495.03;5078098;28;20048;-81
2023/10/20 01:56:19;;;;;;;16.58;10.75;;;14.90;99.90;;;15.16;86.58;97497.72;5069715;28;20048;-81
2023/10/20 01:58:50;;;;;;;17.50;11.90;;;14.90;99.90;;;15.16;86.94;97492.38;5063927;28;20064;-81
2023/10/20 02:01:18;;;;;;;15.02;11.25;;;14.90;99.90;;;15.14;86.99;97491.91;5074118;28;20102;-81
2023/10/20 02:03:49;;;;;;;15.73;10.88;;;14.90;99.90;;;15.13;86.88;97485.75;5063461;28;20040;-82
2023/10/20 02:06:17;;;;;;;15.82;10.52;;;14.90;99.90;;;15.14;87.22;97473.09;5076808;28;20093;-81
2023/10/20 02:08:44;;;;;;;14.15;10.40;;;14.90;99.90;;;15.13;87.00;97464.28;5082569;28;20101;-81
2023/10/20 02:11:12;;;;;;;15.88;10.55;;;14.90;99.90;;;15.14;86.97;97457.78;5099577;28;20056;-82
2023/10/20 02:13:42;;;;;;;16.10;10.73;;;14.90;99.90;;;15.14;87.14;97454.31;5066850;28;20095;-81
2023/10/20 02:16:11;;;;;;;17.58;11.15;;;14.90;99.90;;;15.13;87.08;97456.22;5064615;28;20044;-81
2023/10/20 02:18:39;;;;;;;13.80;10.35;;;14.90;99.90;;;15.14;87.21;97457.78;5062942;28;20061;-81
2023/10/20 02:21:09;;;;;;;17.92;11.02;;;14.90;99.90;;;15.14;87.44;97457.00;5063868;28;20037;-81
2023/10/20 02:23:39;;;;;;;13.25;9.57;;;14.90;99.90;;;15.13;87.55;97455.44;5080925;28;20049;-81
2023/10/20 02:26:09;;;;;;;16.40;10.00;;;14.90;99.90;;;15.10;87.49;97453.38;5046208;28;20076;-81
2023/10/20 02:28:37;;;;;;;16.50;11.00;;;14.90;99.90;;;15.12;87.57;97443.09;5077981;28;20051;-81
2023/10/20 02:31:17;;;;;;;15.18;10.13;;;14.90;99.90;;;15.09;87.69;97431.09;5081069;28;20553;-81
2023/10/20 02:33:44;;;;;;;16.00;11.00;;;14.90;99.90;;;15.10;87.69;97423.84;5068845;28;20116;-81
2023/10/20 02:36:17;;;;;;;15.77;10.77;;;14.90;99.90;;;15.09;88.06;97417.69;5075104;28;20037;-81
2023/10/20 02:38:45;;;;;;;16.15;11.15;;;14.90;99.90;;;15.10;88.08;97408.50;5074055;28;20489;-81
2023/10/20 02:41:13;;;;;;;15.73;10.43;;;14.90;99.90;;;15.08;87.81;97409.91;5081948;28;20049;-81
2023/10/20 02:43:41;;;;;;;14.20;11.30;;;14.90;99.90;;;15.04;88.28;97409.78;5071550;28;20055;-81
2023/10/20 02:46:09;;;;;;;13.45;10.35;;;14.90;99.90;;;15.03;88.33;97405.53;5063960;28;20057;-81
2023/10/20 02:48:39;;;;;;;16.45;10.93;;;14.80;99.90;;;15.05;88.37;97399.84;5078876;28;20051;-81
2023/10/20 02:51:10;;;;;;;14.70;10.25;;;14.80;99.90;;;15.04;88.21;97399.03;5064320;28;20045;-81
2023/10/20 02:53:39;;;;;;;16.80;11.13;;;14.80;99.90;;;15.04;88.14;97395.59;5075167;28;20044;-81
2023/10/20 02:56:14;;;;;;;14.52;10.35;;;14.80;99.90;;;15.03;88.15;97391.28;5081653;28;20063;-81
2023/10/20 02:58:43;;;;;;;14.25;10.43;;;14.80;99.90;;;15.01;88.47;97383.56;5082413;28;20045;-81
2023/10/20 03:01:11;;;;;;;13.32;10.30;;;14.80;99.90;;;15.03;88.49;97359.09;5048342;28;20041;-81
2023/10/20 03:03:40;;;;;;;16.95;10.75;;;14.80;99.90;;;15.02;88.29;97344.88;5074262;28;20066;-81
2023/10/20 03:06:07;;;;;;;14.82;10.25;;;14.80;99.90;;;15.03;88.11;97341.13;5066843;28;20416;-81
2023/10/20 03:08:38;;;;;;;16.67;9.93;;;14.80;99.90;;;15.02;88.07;97336.03;5064025;28;20045;-81
2023/10/20 03:11:08;;;;;;;13.57;10.25;;;14.80;99.90;;;14.99;88.28;97337.47;5069460;28;20056;-81
2023/10/20 03:13:36;;;;;;;14.77;11.10;;;14.80;99.90;;;15.01;88.22;97339.84;5068630;28;20488;-81
2023/10/20 03:16:03;;;;;;;15.77;11.02;;;14.80;99.90;;;15.00;87.97;97330.22;5077995;28;20064;-81
2023/10/20 03:18:31;;;;;;;16.38;10.00;;;14.80;99.90;;;15.01;87.88;97326.41;5096210;28;20049;-81
2023/10/20 03:21:02;;;;;;;17.67;11.10;;;14.80;99.90;;;15.01;87.51;97324.53;5064556;28;20578;-81
2023/10/20 03:23:29;;;;;;;15.40;11.00;;;14.80;99.90;;;15.02;87.33;97311.88;5083787;28;20051;-81
2023/10/20 03:25:58;;;;;;;14.15;10.10;;;14.80;99.90;;;15.01;87.44;97296.91;5082391;28;20075;-81
2023/10/20 03:28:28;;;;;;;16.67;11.07;;;14.80;99.90;;;15.00;87.38;97287.28;5081252;28;20171;-81
2023/10/20 03:30:56;;;;;;;16.33;11.48;;;14.80;99.90;;;14.99;87.35;97285.72;5063715;28;20044;-81
2023/10/20 03:33:24;;;;;;;19.20;12.50;;;14.80;99.90;;;14.96;87.47;97286.34;5097910;28;20052;-81
2023/10/20 03:36:02;;;;;;;17.92;10.88;;;14.70;99.90;;;14.97;87.52;97290.59;5079293;28;20127;-81
2023/10/20 03:38:31;;;;;;;19.23;12.30;;;14.70;99.90;;;14.96;87.53;97291.69;5082921;28;20051;-81
2023/10/20 03:41:07;;;;;;;19.02;13.45;;;14.70;99.90;;;14.94;87.66;97298.19;5066359;28;20503;-81
2023/10/20 03:43:35;;;;;;;17.98;12.90;;;14.70;99.90;;;14.97;87.56;97295.94;5067036;28;20041;-81
2023/10/20 03:46:04;;;;;;;16.95;12.70;;;14.70;99.90;;;14.96;87.51;97297.84;5082261;28;20055;-81
2023/10/20 03:48:33;;;;;;;19.73;13.32;;;14.70;99.90;;;14.97;87.25;97296.75;5072056;28;20036;-81
2023/10/20 03:51:05;;;;;;;18.40;12.18;;;14.70;99.90;;;14.97;87.23;97287.91;5082334;28;20037;-81
2023/10/20 03:53:41;;;;;;;20.48;12.48;;;14.70;99.90;;;14.91;87.63;97280.03;5081686;28;20072;-81
2023/10/20 03:56:09;;;;;;;18.63;12.55;;;14.70;99.90;;;14.91;87.70;97266.59;5060265;28;20041;-81
2023/10/20 03:58:37;;;;;;;18.95;12.98;;;14.70;99.90;;;14.89;88.21;97273.41;5045463;28;20507;-81
2023/10/20 04:01:06;;;;;;;21.10;13.82;;;14.70;99.90;;;14.90;87.87;97289.19;5071848;28;20041;-81
2023/10/20 04:03:34;;;;;;;19.27;13.95;;;14.70;99.90;;;14.91;87.71;97281.91;5079645;28;20045;-83
2023/10/20 04:06:08;;;;;;;21.48;14.68;;;14.70;99.90;;;14.86;88.20;97253.34;5044533;28;20052;-81
2023/10/20 04:08:36;;;;;;;19.98;14.80;;;14.70;99.90;;;14.86;88.20;97231.09;5081598;28;20517;-81
2023/10/20 04:11:03;;;;;;;19.08;14.35;;;14.60;99.90;;;14.85;87.93;97235.69;5063321;28;20495;-84
2023/10/20 04:13:32;;;;;;;23.05;15.35;;;14.70;99.90;;;14.80;88.52;97243.91;5064563;28;20088;-85
2023/10/20 04:15:59;;;;;;;22.75;15.75;;;14.60;99.90;;;14.81;88.87;97226.69;5071134;28;20032;-85
2023/10/20 04:18:32;;;;;;;20.92;14.23;;;14.60;99.90;;;14.82;88.73;97220.22;5022202;28;20432;-85
2023/10/20 04:21:00;;;;;;;20.75;14.52;;;14.60;99.90;;;14.85;88.42;97229.53;5057261;28;20049;-84
2023/10/20 04:23:30;;;;;;;20.25;14.82;;;14.60;99.90;;;14.84;88.27;97231.44;5065624;28;20086;-84
2023/10/20 04:25:58;;;;;;;22.92;14.73;;;14.60;99.90;;;14.84;88.30;97223.38;5052954;28;20048;-85
2023/10/20 04:28:32;;;;;;;22.85;15.27;;;14.70;99.90;;;14.82;88.56;97222.91;5051603;28;20052;-84
2023/10/20 04:42:43;;;;;;;21.38;14.60;;;14.70;99.90;;;14.84;88.57;97196.56;5061194;28;20037;-86
2023/10/20 04:45:36;;;;;;;21.45;15.93;;;14.70;99.90;;;14.80;88.86;97190.25;5059976;28;20136;-86
2023/10/20 04:53:40;;;;;;;21.77;15.00;;;14.60;99.90;;;14.77;89.57;97147.16;5075919;28;20500;-86
2023/10/20 04:58:58;;;;;;;24.50;16.55;;;14.60;99.90;;;14.75;89.83;97127.94;5078179;28;20051;-84
2023/10/20 05:01:30;;;;;;;21.23;15.88;;;14.60;99.90;;;14.77;89.86;97123.03;5090675;28;20164;-84
2023/10/20 05:04:03;;;;;;;22.67;15.85;;;14.60;99.90;;;14.76;89.83;97119.56;5058115;28;20045;-85
2023/10/20 05:06:42;;;;;;;21.25;15.57;;;14.60;99.90;;;14.75;89.94;97117.97;5057735;28;20139;-83
2023/10/20 05:09:13;;;;;;;23.38;15.82;;;14.60;99.90;;;14.76;90.16;97116.88;5076699;28;20056;-83
2023/10/20 05:11:43;;;;;;;25.08;16.50;;;14.70;99.90;;;14.75;90.16;97101.88;5064602;28;20049;-83
2023/10/20 05:14:11;;;;;;;24.02;17.40;;;14.60;99.90;;;14.72;90.63;97089.09;5055292;28;20036;-85
2023/10/20 05:16:38;;;;;;;24.45;17.65;;;14.60;99.90;;;14.73;90.79;97079.94;5065173;28;20041;-84
2023/10/20 05:19:06;;;;;;;27.00;17.73;;;14.60;99.90;;;14.73;90.85;97079.16;5076007;28;20056;-84
2023/10/20 05:21:38;;;;;;;28.10;18.23;;;14.60;99.90;;;14.71;91.25;97079.50;5064951;28;20047;-83
2023/10/20 05:24:08;;;;;;;23.67;16.45;;;14.60;99.90;;;14.73;91.48;97074.56;5076529;28;20037;-84
2023/10/20 05:26:35;;;;;;;25.80;18.75;;;14.60;99.90;;;14.75;91.33;97074.28;5056014;28;20047;-85
2023/10/20 05:29:05;;;;;;;30.27;19.35;;;14.60;99.90;;;14.73;91.66;97077.25;5066214;28;20094;-85
2023/10/20 05:31:33;;;;;;;31.25;19.50;;;14.70;99.90;;;14.73;91.75;97071.91;5057863;28;20041;-84
2023/10/20 05:34:02;;;;;;;30.25;20.02;;;14.60;99.90;;;14.73;91.76;97071.91;5068611;28;20141;-85
2023/10/20 05:36:29;;;;;;;32.13;19.85;;;14.70;99.90;;;14.71;91.97;97063.41;5090840;28;20044;-84
2023/10/20 05:38:58;;;;;;;26.80;19.05;;;14.70;99.90;;;14.70;92.54;97059.16;5087827;28;20068;-83
2023/10/20 05:41:25;;;;;;;27.83;19.80;;;14.60;99.90;;;14.71;92.72;97058.03;5052917;28;20053;-83
2023/10/20 05:43:54;;;;;;;28.92;19.38;;;14.60;99.90;;;14.74;92.36;97043.97;5087209;28;20045;-82
2023/10/20 05:46:23;;;;;;;30.02;20.23;;;14.70;99.90;;;14.72;92.76;97043.50;5081763;28;20043;-82
2023/10/20 05:48:51;;;;;;;28.20;19.75;;;14.70;99.90;;;14.73;92.94;97034.34;5069149;28;20054;-82
2023/10/20 05:51:18;;;;;;;29.23;20.40;;;14.70;99.90;;;14.75;92.63;97031.34;5086640;28;20480;-82
2023/10/20 05:53:46;;;;;;;28.23;18.67;;;14.70;99.90;;;14.74;93.09;97030.56;5072938;28;20041;-82
2023/10/20 05:56:13;;;;;;;29.35;19.52;;;14.70;99.90;;;14.77;93.05;97045.22;5069205;28;20068;-82
2023/10/20 05:58:40;;;;;;;29.88;19.15;;;14.70;99.90;;;14.78;93.12;97046.78;5065559;28;20029;-82
2023/10/20 06:01:10;;;;;;;29.67;18.02;;;14.70;99.90;;;14.79;92.99;97059.91;5079397;28;20048;-82
2023/10/20 06:03:39;;;;;;;28.27;18.55;;;14.70;99.90;;;14.80;92.91;97063.38;5093879;28;20048;-82
2023/10/20 06:06:07;;;;;;;29.13;19.52;;;14.70;99.90;;;14.84;92.75;97065.09;5105702;28;20040;-83
2023/10/20 06:08:34;;;;;;;25.60;17.10;;;14.70;99.90;;;14.83;92.69;97066.16;5075489;28;20048;-82
2023/10/20 06:11:03;;;;;;;27.25;18.38;;;14.80;99.90;;;14.83;92.83;97055.44;5078260;28;20053;-82
2023/10/20 06:13:32;;;;;;;29.85;19.55;;;14.70;99.90;;;14.80;93.08;97048.06;5080709;28;20072;-82
2023/10/20 06:16:08;;;;;;;26.55;17.90;;;14.80;99.90;;;14.78;93.83;97036.06;5077101;28;20040;-82
2023/10/20 06:18:36;;;;;;;26.13;17.60;;;14.70;99.90;;;14.81;93.42;97046.94;5084757;28;20060;-83
2023/10/20 06:21:06;;;;;;;28.13;18.35;;;14.80;99.90;;;14.83;93.48;97050.06;5071889;28;20108;-83
2023/10/20 06:23:34;;;;;;;24.55;17.45;;;14.70;99.90;;;14.85;93.37;97047.09;5068781;28;20041;-82
2023/10/20 06:26:02;;;;;;;24.70;16.98;;;14.80;99.90;;;14.83;93.35;97033.97;5070825;28;20068;-82
2023/10/20 06:28:29;;;;;;;25.67;16.50;;;14.80;99.90;;;14.84;93.38;97029.41;5074599;28;20033;-82
2023/10/20 06:31:00;;;;;;;25.48;16.95;;;14.80;99.90;;;14.84;93.32;97027.53;5026657;28;20181;-82
2023/10/20 06:33:32;;;;;;;23.63;15.15;;;14.80;99.90;;;14.82;93.66;97027.03;5074311;28;20048;-83
2023/10/20 06:36:05;;;;;;;23.95;15.45;;;14.70;99.90;;;14.82;93.55;97015.53;5069914;28;20102;-83
2023/10/20 06:38:37;;;;;;;25.52;15.80;;;14.80;99.90;;;14.80;93.65;97015.06;5081432;28;20135;-83
2023/10/20 06:41:05;;;;;;;23.20;15.68;;;14.80;99.90;;;14.76;94.06;97014.94;5081744;28;20522;-83
2023/10/20 06:43:32;;;;;;;24.27;15.60;;;14.70;99.90;;;14.72;94.44;97005.94;5075934;28;20049;-82
2023/10/20 06:46:01;;;;;;;21.80;14.73;;;14.70;99.90;;;14.67;94.63;97011.50;5072804;28;20045;-83
2023/10/20 06:48:30;;;;;;;22.90;15.05;;;14.70;99.90;;;14.68;95.29;97007.69;5065419;28;20059;-85
2023/10/20 06:51:00;;;;;;;21.80;14.52;;;14.70;99.90;;;14.66;95.33;97002.66;5032042;28;20044;-84
2023/10/20 06:53:28;;;;;;;21.25;15.10;;;14.60;99.90;;;14.68;95.19;97005.03;5048699;28;20045;-84
2023/10/20 06:55:58;;;;;;;21.75;15.05;;;14.70;99.90;;;14.67;95.21;97008.81;5063748;28;20045;-84
2023/10/20 06:58:28;;;;;;;20.42;14.68;;;14.60;99.90;;;14.69;95.21;96993.22;5064415;28;20033;-84
2023/10/20 07:00:56;;;;;;;23.20;15.63;;;14.70;99.90;;;14.69;94.83;96993.22;5036730;28;20060;-88
2023/10/20 07:03:24;;;;;;;21.42;14.73;;;14.60;99.90;;;14.73;94.96;97007.53;5053912;28;20045;-83
2023/10/20 07:05:51;;;;;;;20.55;15.23;;;14.70;99.90;;;14.74;94.34;97002.94;5056312;28;20044;-84
2023/10/20 07:08:18;;;;;;;23.77;15.10;;;14.70;99.90;;;14.71;94.20;97020.47;5071100;28;20075;-84
2023/10/20 07:10:46;;;;;;;22.27;14.90;;;14.70;99.90;;;14.68;93.86;97008.50;5071346;28;20444;-84
2023/10/20 07:13:17;;;;;;;23.80;15.05;;;14.60;99.90;;;14.67;94.10;97019.53;5064557;28;20046;-84
2023/10/20 07:15:46;;;;;;;22.85;14.95;;;14.60;99.90;;;14.67;94.30;97019.53;5051780;28;20057;-84
2023/10/20 07:18:13;;;;;;;23.20;15.65;;;14.60;99.90;;;14.66;93.78;97002.66;5066263;28;20044;-84
2023/10/20 07:20:41;;;;;;;25.65;16.48;;;14.60;99.90;;;14.68;94.25;96994.28;5072042;28;20519;-84
2023/10/20 07:23:10;;;;;;;22.98;14.98;;;14.60;99.90;;;14.67;94.09;97003.44;5073360;28;20059;-84
2023/10/20 07:25:37;;;;;;;22.60;14.98;;;14.60;99.90;;;14.66;93.86;97015.28;5072276;28;20040;-84
2023/10/20 07:28:07;;;;;;;25.60;16.27;;;14.60;99.90;;;14.67;93.97;97000.78;5058887;28;20037;-84
2023/10/20 07:30:36;;;;;;;21.33;14.70;;;14.60;99.90;;;14.66;94.26;96997.31;5066704;28;20091;-84
2023/10/20 07:33:06;;;;;;;21.40;14.57;;;14.60;99.90;;;14.66;93.76;96991.94;5064309;28;20079;-84
2023/10/20 07:35:37;;;;;;;22.67;14.68;;;14.60;99.90;;;14.64;93.83;96988.81;5073992;28;20048;-85
2023/10/20 07:38:07;;;;;;;20.77;14.40;;;14.60;99.90;;;14.58;94.00;96986.63;5057295;28;20416;-84
2023/10/20 07:40:37;;;;;;;21.97;15.43;;;14.50;99.90;;;14.57;94.86;96982.38;5074346;28;20041;-84
2023/10/20 07:43:07;;;;;;;19.10;13.50;;;14.50;99.90;;;14.56;94.91;96983.47;5067982;28;20048;-84
2023/10/20 07:45:41;;;;;;;18.88;14.10;;;14.60;99.90;;;14.58;94.62;96976.66;5078021;28;20458;-83
2023/10/20 07:48:10;;;;;;;20.98;13.45;;;14.50;99.90;;;14.63;94.30;96975.69;5076827;28;20457;-83
2023/10/20 07:50:38;;;;;;;18.05;12.60;;;14.60;99.90;;;14.63;94.32;96981.84;5061622;28;20053;-83
2023/10/20 07:53:07;;;;;;;19.95;12.88;;;14.60;99.90;;;14.64;93.92;96983.44;5061953;28;20043;-83
2023/10/20 07:55:35;;;;;;;19.13;12.38;;;14.60;99.90;;;14.65;93.53;96982.31;5094802;28;20500;-83
2023/10/20 07:58:02;;;;;;;16.75;12.10;;;14.60;99.90;;;14.65;93.51;96978.88;5064800;28;20037;-83
2023/10/20 08:00:31;;;;;;;16.73;11.10;;;14.60;99.90;;;14.65;93.53;96973.50;5043279;28;20040;-83
2023/10/20 08:03:00;;;;;;;17.60;10.60;;;14.60;99.90;;;14.62;93.38;96969.56;5012373;28;20044;-83
2023/10/20 08:05:28;;;;;;;15.95;9.68;;;14.60;99.90;;;14.61;93.54;96977.94;5067880;28;20067;-83
2023/10/20 08:07:58;;;;;;;15.57;9.90;;;14.50;99.90;;;14.61;93.78;96978.72;5082003;28;20037;-83
2023/10/20 08:10:25;;;;;;;13.73;9.60;;;14.50;99.90;;;14.62;93.35;96979.50;5077743;28;20108;-83
2023/10/20 08:12:53;;;;;;;12.80;9.00;;;14.50;99.90;;;14.60;93.34;96971.00;5066388;28;20048;-83
2023/10/20 08:15:21;;;;;;;11.25;8.02;;;14.50;99.90;;;14.58;93.18;96975.88;5083481;28;20056;-83
2023/10/20 08:17:51;;;;;;;12.35;8.68;;;14.50;99.90;;;14.57;93.40;96990.41;5064035;28;20423;-83
2023/10/20 08:20:20;;;;;;;14.23;9.48;;;14.50;99.90;;;14.56;93.81;96978.13;5080053;28;20118;-83
2023/10/20 08:22:48;;;;;;;15.52;8.88;;;14.50;99.90;;;14.56;93.78;96975.44;5065967;28;20064;-83
2023/10/20 08:25:17;;;;;;;12.45;8.32;;;14.50;99.90;;;14.54;93.78;96977.63;5062542;28;20056;-83
2023/10/20 08:27:49;;;;;;;13.10;8.52;;;14.50;99.90;;;14.56;94.34;96980.78;5085192;28;20063;-83
2023/10/20 08:30:18;;;;;;;15.30;9.07;;;14.50;99.90;;;14.57;93.77;96983.16;5062550;28;20045;-84
2023/10/20 08:32:46;;;;;;;11.40;7.65;;;14.50;99.90;;;14.57;93.95;96990.41;5064910;28;20053;-84
2023/10/20 08:35:14;;;;;;;12.13;7.80;;;14.50;99.90;;;14.55;93.67;96985.38;5052218;28;20059;-84
2023/10/20 08:37:46;;;;;;;11.60;7.88;;;14.50;99.90;;;14.56;93.69;96983.47;5080920;28;20045;-84
2023/10/20 08:40:15;;;;;;;10.90;7.30;;;14.50;99.90;;;14.58;93.85;96989.28;5083576;28;20450;-84
2023/10/20 08:42:42;;;;;;;13.43;7.97;;;14.50;99.90;;;14.59;93.64;96975.59;5067027;28;20154;-84
2023/10/20 08:45:15;;;;;;;12.20;6.93;;;14.50;99.90;;;14.50;93.06;96972.16;5069141;28;20053;-84
2023/10/20 08:47:45;;;;;;;8.80;5.90;;;14.50;99.90;;;14.51;93.49;96978.28;5078238;28;20049;-83
2023/10/20 08:50:16;;;;;;;8.77;6.55;;;14.40;99.90;;;14.49;93.15;96981.28;5055374;28;20049;-84
2023/10/20 08:52:45;;;;;;;9.73;6.72;;;14.40;99.90;;;14.49;93.76;96991.22;5074695;28;20045;-84
2023/10/20 08:55:14;;;;;;;8.60;6.53;;;14.40;99.90;;;14.54;93.78;96983.81;5041663;28;20048;-83
2023/10/20 08:57:42;;;;;;;9.10;6.78;;;14.50;99.90;;;14.54;93.46;96988.34;5062948;28;20127;-86
2023/10/20 09:00:19;;;;;;;9.70;6.05;;;14.50;99.90;;;14.55;92.97;96995.31;5074155;28;20056;-85
2023/10/20 09:02:47;;;;;;;8.10;5.35;;;14.50;99.90;;;14.57;93.20;96982.38;5065942;28;20055;-85
2023/10/20 09:05:22;;;;;;;7.97;5.57;;;14.50;99.90;;;14.61;92.96;96994.81;5054276;28;20040;-85
2023/10/20 09:07:56;;;;;;;9.65;6.35;;;14.50;99.90;;;14.59;92.81;96974.78;5062950;28;20530;-86
2023/10/20 09:10:24;;;;;;;7.50;5.15;;;14.50;99.90;;;14.55;92.41;96979.22;5069619;28;20049;-86
2023/10/20 09:12:51;;;;;;;6.80;4.88;;;14.50;99.90;;;14.53;92.75;96986.78;5057287;28;20044;-86
2023/10/20 09:15:19;;;;;;;7.78;4.97;;;14.40;99.90;;;14.53;92.32;96992.16;5054691;28;20041;-87
2023/10/20 09:17:54;;;;;;;9.20;5.25;;;14.50;99.90;;;14.55;92.80;96976.56;5062798;28;20061;-84
2023/10/20 09:20:23;;;;;;;6.80;4.90;;;14.50;99.90;;;14.53;92.94;96978.75;5068402;28;20447;-84
2023/10/20 09:22:53;;;;;;;7.18;4.57;;;14.50;99.90;;;14.53;92.54;96984.13;5058061;28;20107;-84
2023/10/20 09:25:20;;;;;;;9.43;4.80;;;14.50;99.90;;;14.54;92.70;96980.31;5019684;28;20056;-84
2023/10/20 09:27:48;;;;;;;8.52;5.10;;;14.50;99.90;;;14.55;92.44;96979.22;5072396;28;20506;-84
2023/10/20 09:30:16;;;;;;;6.88;4.78;;;14.50;99.90;;;14.55;92.17;96985.38;5080833;28;20466;-84
2023/10/20 09:32:46;;;;;;;8.40;5.15;;;14.50;99.90;;;14.51;92.36;96989.81;5023867;28;20145;-84
2023/10/20 09:35:14;;;;;;;6.72;4.90;;;14.40;99.90;;;14.50;92.83;96982.09;5056948;28;20075;-84
2023/10/20 09:37:43;;;;;;;8.73;5.45;;;14.40;99.90;;;14.53;93.04;96986.78;5078018;28;20096;-84
2023/10/20 09:40:13;;;;;;;8.38;5.10;;;14.40;99.90;;;14.53;93.56;96976.06;5070222;28;20044;-84
2023/10/20 09:42:57;;;;;;;7.97;5.00;;;14.40;99.90;;;14.51;92.95;96976.41;5063099;28;20495;-84
2023/10/20 09:45:36;;;;;;;6.75;5.20;;;14.40;99.90;;;14.51;93.12;96972.94;5058247;28;20387;-84
2023/10/20 09:48:18;;;;;;;7.57;5.63;;;14.40;99.90;;;14.54;92.84;96977.63;5071931;28;20040;-84
2023/10/20 09:50:46;;;;;;;9.07;5.60;;;14.50;99.90;;;14.50;92.90;96974.84;5060256;28;20098;-84
2023/10/20 09:53:16;;;;;;;12.05;5.88;;;14.50;99.90;;;14.56;92.88;96975.44;5056206;28;20045;-84
2023/10/20 09:55:47;;;;;;;8.82;6.28;;;14.50;99.90;;;14.55;91.93;96979.22;5074673;28;20094;-84
2023/10/20 09:58:24;;;;;;;;;;;14.50;99.90;;;14.53;92.19;96978.75;5075589;28;20076;-84
2023/10/20 10:00:52;;;;;;;7.53;5.28;;;14.40;99.90;;;14.54;92.73;96980.31;5077747;28;19921;-84
2023/10/20 10:03:29;;;;;;;7.22;5.10;;;14.50;99.90;;;14.53;92.41;96976.06;5061402;28;20064;-83
2023/10/20 10:05:57;;;;;;;9.35;5.53;;;14.50;99.90;;;14.54;92.50;96972.28;5080717;28;20052;-84
2023/10/20 10:08:26;;;;;;;7.95;5.30;;;14.50;99.90;;;14.54;92.19;96985.69;5078917;28;20036;-84
2023/10/20 10:10:55;;;;;;;9.25;4.70;;;14.50;99.90;;;14.58;92.52;96987.41;5075915;28;20504;-84
2023/10/20 10:13:35;;;;;;;9.65;5.25;;;14.50;99.90;;;14.60;92.15;96987.88;5067108;28;20397;-83
2023/10/20 10:16:13;;;;;;;8.93;4.78;;;14.50;99.90;;;14.61;91.93;97000.16;5080892;28;20032;-83
2023/10/20 10:18:47;;;;;;;7.55;5.38;;;14.50;99.90;;;14.65;91.52;96989.59;5091216;28;20055;-84
2023/10/20 10:21:29;;;;;;;8.63;4.50;;;14.50;99.90;;;14.65;91.45;96986.91;5062081;28;20378;-84
2023/10/20 10:24:10;;;;;;;8.98;4.95;;;14.50;99.90;;;14.63;91.39;96979.16;5061668;28;20045;-84
2023/10/20 10:26:48;;;;;;;9.02;4.97;;;14.50;99.90;;;14.66;91.49;96983.13;5070554;28;20381;-83
2023/10/20 10:29:15;;;;;;;7.35;4.88;;;14.50;99.90;;;14.65;91.06;96986.91;5060734;28;20060;-83
2023/10/20 10:31:44;;;;;;;7.78;5.18;;;14.50;99.90;;;14.65;90.66;96981.53;5079121;28;20116;-83
2023/10/20 10:34:11;;;;;;;7.30;4.95;;;14.50;99.90;;;14.60;91.16;96965.63;5061674;28;20135;-83
2023/10/20 10:36:48;;;;;;;7.82;4.63;;;14.50;99.90;;;14.47;91.58;96972.75;5078394;28;20129;-83
2023/10/20 10:39:28;;;;;;;5.93;4.20;;;14.40;99.90;;;14.50;91.70;96968.69;5078877;28;20045;-83
2023/10/20 10:42:02;;;;;;;6.38;4.50;;;14.40;99.90;;;14.49;91.30;96965.19;5079425;28;20059;-83
2023/10/20 10:44:34;;;;;;;6.97;3.90;;;14.40;99.90;;;14.55;91.41;96955.88;5075187;28;20049;-83